Time;durP1;ratioP1;P1;durP2;ratioP2;P2;SDS_P1;SDS_P2;PMS_P1;PMS_P2;Temp;Humidity;BMP_temperature;BMP_pressure;BME280_temperature;BME280_humidity;BME280_pressure;Samples;Min_cycle;Max_cycle;Signal;HPM_P1;HPM_P2
2022/04/07 00:01:34;;;;;;;7.72;5.75;;;;;;;4.61;75.47;98998.53;4861285;29;20398;-89
2022/04/07 00:04:00;;;;;;;8.23;6.35;;;;;;;4.69;75.42;98991.94;4846213;29;20044;-93
2022/04/07 00:06:26;;;;;;;9.60;6.18;;;;;;;4.69;75.12;98994.59;4874755;29;20078;-94
2022/04/07 00:08:52;;;;;;;8.23;6.90;;;;;;;4.61;75.13;98987.97;4883399;29;20033;-91
2022/04/07 00:11:18;;;;;;;9.05;6.47;;;;;;;4.46;75.80;98983.59;4876288;29;20049;-94
2022/04/07 00:13:44;;;;;;;7.80;6.60;;;;;;;4.46;76.08;98988.91;4876884;29;20038;-94
2022/04/07 00:16:10;;;;;;;6.40;5.45;;;;;;;4.50;75.84;98979.81;4868944;29;20036;-94
2022/04/07 00:18:36;;;;;;;6.30;5.15;;;;;;;4.54;75.65;98986.63;4885872;29;20049;-92
2022/04/07 00:21:06;;;;;;;7.63;4.90;;;;;;;4.48;75.85;98984.38;4953252;23;20155;-89
2022/04/07 00:23:32;;;;;;;5.82;5.00;;;;;;;4.49;76.04;98982.56;4904108;29;20072;-92
2022/04/07 00:25:58;;;;;;;5.50;4.78;;;;;;;4.54;75.57;98975.19;4872497;29;20044;-90
2022/04/07 00:28:24;;;;;;;7.38;4.65;;;;;;;4.56;75.43;98968.88;4885441;29;20047;-91
2022/04/07 00:30:51;;;;;;;8.18;5.55;;;;;;;4.52;75.62;98963.88;4868874;29;20159;-87
2022/04/07 00:33:17;;;;;;;5.75;5.13;;;;;;;4.58;75.67;98972.25;4902169;29;20096;-94
2022/04/07 00:35:42;;;;;;;7.07;5.03;;;;;;;4.59;75.47;98962.53;4909556;29;20452;-90
2022/04/07 00:38:08;;;;;;;6.03;5.15;;;;;;;4.57;75.49;98964.41;4899392;29;20049;-89
2022/04/07 00:40:34;;;;;;;6.90;5.25;;;;;;;4.62;75.69;98957.88;4881929;29;20048;-88
2022/04/07 00:43:00;;;;;;;9.75;6.03;;;;;;;4.66;75.29;98970.94;4881445;29;20061;-88
2022/04/07 00:45:26;;;;;;;6.93;4.70;;;;;;;4.54;75.90;98970.75;4849397;29;20053;-88
2022/04/07 00:47:52;;;;;;;7.20;5.45;;;;;;;4.61;75.43;98979.16;4881521;29;20052;-87
2022/04/07 00:50:19;;;;;;;5.97;5.38;;;;;;;4.62;75.31;98976.41;4881745;29;20082;-88
2022/04/07 00:52:55;;;;;;;8.05;5.03;;;;;;;4.60;75.50;98964.25;4850815;29;20045;-88
2022/04/07 00:55:21;;;;;;;6.50;5.00;;;;;;;4.53;75.39;98962.91;4849747;29;20101;-87
2022/04/07 00:57:47;;;;;;;6.32;5.72;;;;;;;4.56;75.31;98963.56;4849163;29;20128;-88
2022/04/07 01:00:14;;;;;;;6.63;5.60;;;;;;;4.70;75.37;98967.16;4849088;29;20049;-88
2022/04/07 01:02:41;;;;;;;8.95;5.57;;;;;;;4.77;75.25;98971.97;4881646;29;20053;-89
2022/04/07 01:05:09;;;;;;;5.70;5.15;;;;;;;4.83;74.86;98965.47;4848443;29;20144;-91
2022/04/07 01:07:39;;;;;;;5.78;5.10;;;;;;;4.77;74.75;98969.31;4873215;29;20048;-87
2022/04/07 01:10:08;;;;;;;7.15;5.40;;;;;;;4.79;74.49;98958.66;4865068;29;20310;-90
2022/04/07 01:12:35;;;;;;;10.90;5.70;;;;;;;4.68;74.88;98955.81;4866157;29;20053;-89
2022/04/07 01:15:05;;;;;;;6.90;5.75;;;;;;;4.72;75.05;98959.97;4881804;29;20060;-91
2022/04/07 01:17:32;;;;;;;6.30;5.68;;;;;;;4.80;74.80;98955.06;4852058;29;20048;-90
2022/04/07 01:19:58;;;;;;;6.80;5.82;;;;;;;4.80;74.72;98957.69;4874232;29;20052;-91
2022/04/07 01:22:24;;;;;;;8.90;6.43;;;;;;;4.79;74.76;98963.94;4887160;29;20097;-88
2022/04/07 01:24:50;;;;;;;8.60;6.32;;;;;;;4.82;74.77;98963.75;4857062;29;20059;-91
2022/04/07 01:27:18;;;;;;;11.02;7.45;;;;;;;4.85;74.50;98963.53;4885830;29;20057;-95
2022/04/07 01:29:44;;;;;;;11.65;7.28;;;;;;;4.81;74.40;98962.03;4870285;29;20049;-91
2022/04/07 01:32:40;;;;;;;10.35;7.88;;;;;;;4.72;74.94;98970.56;4849518;29;20093;-92
2022/04/07 01:35:06;;;;;;;14.93;8.73;;;;;;;4.79;74.41;98963.94;4881754;29;20052;-89
2022/04/07 01:37:34;;;;;;;10.30;7.95;;;;;;;4.78;74.45;98962.25;4851049;29;20072;-90
2022/04/07 01:40:01;;;;;;;15.50;10.05;;;;;;;4.85;74.45;98971.50;4850014;29;20151;-90
2022/04/07 01:42:29;;;;;;;21.27;11.18;;;;;;;4.93;74.56;98976.31;4866825;29;20052;-91
2022/04/07 01:45:00;;;;;;;27.05;10.35;;;;;;;4.92;74.26;98985.22;4849970;29;20524;-90
2022/04/07 01:47:26;;;;;;;16.33;11.48;;;;;;;4.90;74.17;98977.38;4882093;29;20136;-92
2022/04/07 01:50:02;;;;;;;22.60;12.45;;;;;;;4.90;74.22;98980.03;4885703;29;20041;-90
2022/04/07 01:52:29;;;;;;;18.48;11.70;;;;;;;4.94;74.08;98973.56;4849865;29;20045;-91
2022/04/07 01:54:58;;;;;;;17.40;11.88;;;;;;;4.92;74.40;98972.81;4851665;29;20287;-95
2022/04/07 01:57:25;;;;;;;27.00;12.15;;;;;;;4.93;74.41;98966.59;4866411;29;20048;-87
2022/04/07 01:59:51;;;;;;;25.10;13.90;;;;;;;4.97;74.22;98967.25;4867751;29;20048;-94
2022/04/07 02:02:17;;;;;;;28.55;12.27;;;;;;;5.01;74.18;98969.59;4871800;29;20195;-93
2022/04/07 02:04:53;;;;;;;23.48;11.65;;;;;;;5.04;73.84;98979.13;4835117;29;20064;-91
2022/04/07 02:07:19;;;;;;;16.23;10.95;;;;;;;5.07;73.79;98990.38;4841865;29;20064;-93
2022/04/07 02:09:45;;;;;;;13.23;8.90;;;;;;;5.00;73.88;98989.09;4860254;29;20530;-93
2022/04/07 02:12:11;;;;;;;13.18;9.35;;;;;;;5.04;73.69;99003.84;4858222;29;20056;-92
2022/04/07 02:14:37;;;;;;;14.35;8.68;;;;;;;5.00;73.44;98989.09;4889214;29;20074;-91
2022/04/07 02:17:03;;;;;;;16.83;7.97;;;;;;;5.04;73.64;99003.84;4855954;29;20512;-91
2022/04/07 02:19:31;;;;;;;10.88;7.40;;;;;;;5.08;73.64;98996.56;4841824;29;20464;-92
2022/04/07 02:21:56;;;;;;;22.25;6.60;;;;;;;5.06;73.30;98994.00;4841051;29;20055;-90
2022/04/07 02:24:22;;;;;;;7.10;5.82;;;;;;;4.93;73.28;98990.44;4851850;29;20139;-91
2022/04/07 02:26:48;;;;;;;6.85;5.18;;;;;;;5.04;73.15;99001.19;4870548;29;20045;-93
2022/04/07 02:29:14;;;;;;;5.25;4.50;;;;;;;5.11;73.27;98999.88;4886135;29;20125;-93
2022/04/07 02:31:40;;;;;;;5.60;4.40;;;;;;;5.04;73.28;98985.31;4885276;29;20053;-92
2022/04/07 02:34:06;;;;;;;7.20;5.10;;;;;;;5.11;72.72;98994.56;4885873;29;20092;-92
2022/04/07 02:36:32;;;;;;;9.88;4.07;;;;;;;5.23;72.88;98994.75;4867426;29;20536;-92
2022/04/07 02:38:59;;;;;;;4.18;3.78;;;;;;;5.33;72.64;99003.78;4882482;29;20056;-90
2022/04/07 02:41:25;;;;;;;5.25;3.65;;;;;;;5.38;72.50;99006.13;4865894;29;20441;-91
2022/04/07 02:43:51;;;;;;;5.68;3.53;;;;;;;5.39;72.40;99006.06;4883097;29;20040;-90
2022/04/07 02:46:17;;;;;;;10.25;3.22;;;;;;;5.41;71.96;99009.44;4867728;29;20139;-92
2022/04/07 02:48:43;;;;;;;3.95;3.58;;;;;;;5.44;72.16;99009.25;4856075;29;20105;-93
2022/04/07 02:51:09;;;;;;;3.10;2.85;;;;;;;5.46;72.46;99012.66;4887092;29;20051;-93
2022/04/07 02:53:35;;;;;;;3.90;3.33;;;;;;;5.45;72.04;98995.03;4868335;29;20144;-91
2022/04/07 02:56:01;;;;;;;19.20;3.15;;;;;;;5.41;72.12;99013.91;4839874;29;20053;-93
2022/04/07 02:58:27;;;;;;;20.83;3.13;;;;;;;5.48;72.21;99012.56;4890309;29;20052;-91
2022/04/07 03:00:53;;;;;;;11.57;3.50;;;;;;;5.53;72.08;99024.56;4861489;29;20037;-92
2022/04/07 03:03:19;;;;;;;6.43;3.17;;;;;;;5.49;72.07;99001.88;4915176;23;20064;-91
2022/04/07 03:05:45;;;;;;;6.18;3.20;;;;;;;5.60;71.99;99017.94;4908232;29;20104;-89
2022/04/07 03:08:12;;;;;;;3.95;3.58;;;;;;;5.53;72.07;99007.81;4889034;29;20055;-90
2022/04/07 03:10:38;;;;;;;3.90;3.50;;;;;;;5.49;72.66;99016.91;4904413;29;20052;-87
2022/04/07 03:13:04;;;;;;;4.63;3.45;;;;;;;5.44;72.66;99025.16;4884534;29;20403;-89
2022/04/07 03:15:30;;;;;;;7.10;3.03;;;;;;;5.47;72.73;99027.63;4900343;29;20127;-86
2022/04/07 03:17:56;;;;;;;4.25;3.55;;;;;;;5.53;72.64;99026.38;4867487;29;20082;-89
2022/04/07 03:20:22;;;;;;;3.75;3.03;;;;;;;5.59;72.34;99024.16;4882653;29;20048;-89
2022/04/07 03:22:48;;;;;;;3.63;2.83;;;;;;;5.45;72.43;99010.94;4851126;29;20044;-86
2022/04/07 03:25:14;;;;;;;3.50;3.20;;;;;;;5.64;72.40;99031.81;4902827;29;20044;-90
2022/04/07 03:27:39;;;;;;;5.50;3.22;;;;;;;5.75;72.27;99012.56;4870317;29;20052;-90
2022/04/07 03:30:06;;;;;;;4.32;3.78;;;;;;;5.80;71.91;99026.38;4883639;29;20052;-88
2022/04/07 03:32:32;;;;;;;3.70;3.28;;;;;;;5.80;71.98;99024.59;4883864;29;20111;-87
2022/04/07 03:34:58;;;;;;;4.45;3.67;;;;;;;5.91;71.91;99028.34;4872733;29;20072;-85
2022/04/07 03:37:24;;;;;;;4.68;3.40;;;;;;;5.96;71.56;99032.41;4879020;29;20065;-90
2022/04/07 03:39:50;;;;;;;5.45;3.60;;;;;;;6.31;73.51;99045.13;4868673;29;20084;-88
2022/04/07 03:42:16;;;;;;;4.57;3.50;;;;;;;6.37;71.27;99028.78;4836371;29;20041;-87
2022/04/07 03:44:42;;;;;;;5.88;3.63;;;;;;;6.52;71.07;99041.03;4882364;29;20100;-82
2022/04/07 03:47:08;;;;;;;3.47;3.17;;;;;;;6.71;70.24;99031.78;4882578;29;20060;-81
2022/04/07 03:49:34;;;;;;;6.32;4.28;;;;;;;6.74;69.71;99036.91;4865741;29;20053;-79
2022/04/07 03:52:00;;;;;;;14.18;3.90;;;;;;;6.71;69.46;99023.81;4865465;29;20040;-85
2022/04/07 03:54:26;;;;;;;3.92;3.53;;;;;;;6.76;69.46;99027.84;4851318;29;20104;-82
2022/04/07 03:56:52;;;;;;;19.33;3.53;;;;;;;6.83;69.39;99038.91;4865295;29;20048;-78
2022/04/07 03:59:19;;;;;;;4.50;3.95;;;;;;;6.84;69.04;99029.97;4865662;29;20049;-84
2022/04/07 04:01:44;;;;;;;5.90;3.85;;;;;;;6.87;68.78;99039.53;4864950;29;20393;-81
2022/04/07 04:04:10;;;;;;;9.43;4.05;;;;;;;6.92;68.92;99046.25;4848957;29;20064;-80
2022/04/07 04:06:36;;;;;;;5.13;3.83;;;;;;;6.90;68.66;99044.66;4881669;29;20060;-79
2022/04/07 04:09:03;;;;;;;6.80;4.10;;;;;;;6.79;68.65;99035.59;4831068;29;20469;-80
2022/04/07 04:11:29;;;;;;;4.38;3.67;;;;;;;6.74;68.60;99035.09;4834563;29;20077;-84
2022/04/07 04:13:55;;;;;;;4.70;4.22;;;;;;;6.74;68.87;99039.56;4831133;29;20504;-81
2022/04/07 04:16:21;;;;;;;4.40;4.00;;;;;;;6.74;68.94;99028.94;4864949;29;20137;-80
2022/04/07 04:18:47;;;;;;;5.57;4.03;;;;;;;6.67;68.96;99032.97;4849620;29;20456;-82
2022/04/07 04:21:13;;;;;;;4.47;3.63;;;;;;;6.71;68.97;99029.13;4849707;29;20084;-87
2022/04/07 04:23:40;;;;;;;4.97;4.03;;;;;;;6.85;68.93;99037.00;4849954;29;20093;-83
2022/04/07 04:26:06;;;;;;;6.57;4.30;;;;;;;6.98;68.64;99032.50;4881589;29;20041;-83
2022/04/07 04:28:32;;;;;;;16.88;4.68;;;;;;;7.06;68.25;99034.63;4849301;29;20416;-83
2022/04/07 04:30:58;;;;;;;5.13;4.20;;;;;;;7.10;68.06;99029.94;4849360;29;20053;-83
2022/04/07 04:33:24;;;;;;;6.65;4.00;;;;;;;7.15;67.75;99027.84;4864723;29;20049;-82
2022/04/07 04:35:50;;;;;;;9.15;4.28;;;;;;;7.09;68.07;99026.44;4849063;29;20049;-80
2022/04/07 04:38:16;;;;;;;5.40;3.83;;;;;;;6.99;67.84;99034.22;4849273;29;20037;-79
2022/04/07 04:40:42;;;;;;;4.47;4.07;;;;;;;6.94;68.36;99035.50;4849170;29;20048;-80
2022/04/07 04:43:08;;;;;;;5.68;4.57;;;;;;;6.92;68.58;99032.09;4864681;29;20500;-79
2022/04/07 04:45:34;;;;;;;14.07;4.43;;;;;;;6.87;68.72;99032.41;4881274;29;20045;-81
2022/04/07 04:48:00;;;;;;;5.78;4.20;;;;;;;6.79;68.64;99037.41;4863985;29;20505;-80
2022/04/07 04:50:27;;;;;;;8.13;5.60;;;;;;;6.90;68.62;99029.56;4833645;29;20056;-80
2022/04/07 04:52:52;;;;;;;5.55;4.10;;;;;;;6.79;68.74;99032.09;4881047;29;20049;-81
2022/04/07 04:55:19;;;;;;;5.18;4.32;;;;;;;6.86;68.72;99037.84;4848517;29;20045;-80
2022/04/07 04:57:45;;;;;;;4.93;4.25;;;;;;;6.79;68.62;99034.75;4863980;29;20078;-82
2022/04/07 05:00:11;;;;;;;5.32;4.57;;;;;;;6.78;68.50;99047.19;4833457;29;20063;-81
2022/04/07 05:02:39;;;;;;;11.32;4.30;;;;;;;6.73;68.83;99048.47;4879606;29;20068;-81
2022/04/07 05:05:06;;;;;;;6.45;4.57;;;;;;;6.67;68.85;99039.13;4863672;29;20048;-83
2022/04/07 05:07:37;;;;;;;6.60;4.00;;;;;;;6.79;68.72;99029.44;4880532;29;20060;-82
2022/04/07 05:10:04;;;;;;;8.32;5.03;;;;;;;6.72;68.44;99031.66;4864109;29;20044;-83
2022/04/07 05:12:30;;;;;;;9.77;4.97;;;;;;;6.80;68.68;99018.69;4863735;29;20056;-80
2022/04/07 05:14:56;;;;;;;10.02;5.10;;;;;;;6.85;68.23;99021.06;4863941;29;20497;-82
2022/04/07 05:17:22;;;;;;;5.70;4.85;;;;;;;6.88;68.04;99026.13;4863829;29;20076;-81
2022/04/07 05:19:49;;;;;;;6.45;5.68;;;;;;;6.87;68.33;99023.59;4863609;29;20087;-81
2022/04/07 05:22:15;;;;;;;6.30;5.57;;;;;;;7.02;68.27;99022.53;4848215;29;20052;-83
2022/04/07 05:24:41;;;;;;;9.65;5.90;;;;;;;7.18;67.41;99001.84;4864063;29;20056;-81
2022/04/07 05:27:06;;;;;;;5.88;4.60;;;;;;;7.18;67.40;99016.97;4879846;29;20045;-81
2022/04/07 05:29:32;;;;;;;6.38;5.13;;;;;;;7.14;67.58;99031.44;4880423;29;20053;-82
2022/04/07 05:31:58;;;;;;;6.30;5.13;;;;;;;7.09;67.98;99034.41;4848182;29;20070;-82
2022/04/07 05:34:24;;;;;;;6.28;5.32;;;;;;;7.26;67.65;99034.09;4863472;29;20457;-81
2022/04/07 05:36:50;;;;;;;9.48;5.00;;;;;;;7.39;66.98;99035.88;4847940;29;20139;-80
2022/04/07 05:39:16;;;;;;;8.23;5.35;;;;;;;7.72;66.75;99045.88;4848033;29;20500;-83
2022/04/07 05:41:42;;;;;;;5.53;5.00;;;;;;;8.07;65.84;99050.41;4879845;29;20051;-80
2022/04/07 05:44:08;;;;;;;7.63;5.07;;;;;;;8.35;64.32;99058.03;4848000;29;20093;-80
2022/04/07 05:46:33;;;;;;;5.30;4.80;;;;;;;8.81;64.40;99059.88;4880434;29;20055;-81
2022/04/07 05:48:59;;;;;;;7.20;5.15;;;;;;;9.12;62.33;99053.00;4863249;29;20135;-82
2022/04/07 05:51:25;;;;;;;7.95;5.60;;;;;;;9.08;62.33;99048.03;4847948;29;20076;-80
2022/04/07 05:53:51;;;;;;;9.35;5.60;;;;;;;9.16;61.46;99048.28;4847705;29;20081;-80
2022/04/07 05:56:17;;;;;;;8.65;5.78;;;;;;;9.08;61.50;99050.69;4847409;29;20049;-81
2022/04/07 05:58:43;;;;;;;6.38;5.05;;;;;;;8.98;61.48;99053.22;4862943;29;20513;-80
2022/04/07 06:01:09;;;;;;;6.22;5.18;;;;;;;8.91;61.75;99044.88;4847861;29;20127;-82
2022/04/07 06:03:36;;;;;;;7.95;5.78;;;;;;;9.35;61.13;99059.16;4862969;29;20184;-83
2022/04/07 06:06:02;;;;;;;7.18;5.72;;;;;;;9.21;60.70;99068.28;4879632;29;20527;-79
2022/04/07 06:08:28;;;;;;;8.52;5.47;;;;;;;9.09;61.06;99058.56;4832687;29;20088;-81
2022/04/07 06:10:54;;;;;;;6.22;5.55;;;;;;;9.12;60.77;99068.16;4832823;29;20045;-79
2022/04/07 06:13:20;;;;;;;10.68;6.05;;;;;;;9.12;60.70;99057.47;4847838;29;20063;-80
2022/04/07 06:15:46;;;;;;;8.05;5.88;;;;;;;8.99;60.15;99055.78;4863728;29;20408;-80
2022/04/07 06:18:13;;;;;;;7.78;6.30;;;;;;;8.86;60.75;99063.03;4833104;29;20067;-80
2022/04/07 06:20:40;;;;;;;11.98;6.53;;;;;;;8.86;60.55;99063.03;4847883;29;20053;-80
2022/04/07 06:23:06;;;;;;;6.38;5.78;;;;;;;8.90;60.33;99067.16;4832553;29;20449;-80
2022/04/07 06:25:32;;;;;;;8.00;6.00;;;;;;;8.75;60.81;99065.66;4879867;29;20056;-80
2022/04/07 06:27:59;;;;;;;11.25;6.30;;;;;;;8.83;60.94;99071.25;4847780;29;20150;-81
2022/04/07 06:30:25;;;;;;;7.40;6.15;;;;;;;9.12;60.49;99065.47;4879486;29;20045;-82
2022/04/07 06:32:52;;;;;;;6.82;5.88;;;;;;;9.02;60.14;99056.50;4847627;29;20049;-82
2022/04/07 06:35:19;;;;;;;10.50;5.93;;;;;;;8.97;60.28;99048.88;4862694;29;20109;-82
2022/04/07 06:37:56;;;;;;;9.40;6.88;;;;;;;9.33;60.30;99060.28;4847036;29;20044;-81
2022/04/07 06:40:25;;;;;;;8.93;6.28;;;;;;;9.48;59.14;99067.91;4832123;29;20048;-80
2022/04/07 06:42:53;;;;;;;8.23;6.43;;;;;;;9.40;59.40;99078.34;4847487;29;20045;-81
2022/04/07 06:45:19;;;;;;;6.43;5.82;;;;;;;9.36;59.10;99079.53;4862841;29;20044;-81
2022/04/07 06:47:45;;;;;;;9.65;6.20;;;;;;;9.18;59.31;99089.00;4847527;29;20057;-80
2022/04/07 06:50:12;;;;;;;10.45;6.65;;;;;;;9.10;59.85;99086.06;4849759;29;20469;-82
2022/04/07 06:52:39;;;;;;;7.35;6.65;;;;;;;9.28;59.43;99083.78;4865814;29;20053;-82
2022/04/07 06:55:07;;;;;;;7.72;6.30;;;;;;;9.53;58.77;99074.69;4848474;29;20159;-81
2022/04/07 06:57:48;;;;;;;8.95;6.90;;;;;;;9.56;58.72;99072.63;4863471;29;20117;-81
2022/04/07 07:00:15;;;;;;;7.30;6.20;;;;;;;9.61;58.50;99080.25;4836460;29;20166;-81
2022/04/07 07:02:41;;;;;;;7.22;6.53;;;;;;;9.78;58.17;99074.44;4862606;29;20076;-80
2022/04/07 07:05:07;;;;;;;10.27;6.55;;;;;;;9.80;57.83;99072.47;4847671;29;20052;-80
2022/04/07 07:07:33;;;;;;;7.10;6.35;;;;;;;9.67;58.22;99066.44;4863160;29;20048;-80
2022/04/07 07:09:59;;;;;;;7.30;6.57;;;;;;;9.43;58.40;99075.41;4831890;29;20049;-81
2022/04/07 07:12:25;;;;;;;6.93;6.22;;;;;;;9.28;58.63;99084.63;4880901;29;20139;-81
2022/04/07 07:14:51;;;;;;;7.43;6.70;;;;;;;9.41;58.80;99088.03;4865951;29;20125;-82
2022/04/07 07:17:16;;;;;;;8.90;6.60;;;;;;;9.35;58.70;99077.84;4835174;29;20101;-81
2022/04/07 07:19:42;;;;;;;7.50;6.55;;;;;;;9.34;59.04;99089.50;4850671;29;20048;-81
2022/04/07 07:22:08;;;;;;;8.07;6.82;;;;;;;9.40;58.60;99085.47;4865687;29;20096;-80
2022/04/07 07:24:34;;;;;;;7.78;6.60;;;;;;;9.42;58.58;99072.88;4850692;29;20131;-80
2022/04/07 07:27:00;;;;;;;8.70;6.93;;;;;;;9.35;58.34;99074.34;4882278;29;20041;-80
2022/04/07 07:29:26;;;;;;;9.20;6.55;;;;;;;9.22;58.29;99080.66;4850402;29;20053;-81
2022/04/07 07:31:52;;;;;;;7.53;6.75;;;;;;;9.01;58.80;99087.66;4882726;29;20063;-81
2022/04/07 07:34:18;;;;;;;7.50;6.70;;;;;;;8.73;59.34;99083.59;4835480;29;20531;-81
2022/04/07 07:36:44;;;;;;;8.30;6.88;;;;;;;8.50;60.39;99093.34;4865805;29;20139;-81
2022/04/07 07:39:10;;;;;;;9.00;6.93;;;;;;;8.42;60.63;99109.03;4850100;29;20505;-80
2022/04/07 07:41:38;;;;;;;7.53;6.80;;;;;;;8.44;60.93;99105.31;4850881;29;20140;-82
2022/04/07 07:44:07;;;;;;;9.40;6.85;;;;;;;8.36;60.89;99101.50;4834756;29;20219;-81
2022/04/07 07:46:34;;;;;;;8.07;7.10;;;;;;;8.29;60.96;99114.41;4865578;29;20045;-81
2022/04/07 07:49:01;;;;;;;10.38;7.22;;;;;;;8.28;60.94;99107.38;4835206;29;20045;-81
2022/04/07 07:51:27;;;;;;;11.75;6.93;;;;;;;8.05;61.67;99106.44;4865379;29;20045;-81
2022/04/07 07:53:53;;;;;;;10.05;6.80;;;;;;;7.95;62.16;99119.56;4865320;29;20044;-80
2022/04/07 07:56:19;;;;;;;12.23;6.97;;;;;;;7.74;62.42;99107.78;4850081;29;20420;-80
2022/04/07 07:58:45;;;;;;;10.27;7.25;;;;;;;7.64;63.14;99109.44;4865307;29;20053;-80
2022/04/07 08:01:10;;;;;;;10.68;9.00;;;;;;;7.52;63.68;99106.69;4849771;29;20096;-80
2022/04/07 08:03:36;;;;;;;9.57;6.97;;;;;;;7.55;63.73;99101.13;4849413;29;20057;-81
2022/04/07 08:06:02;;;;;;;9.98;7.40;;;;;;;7.91;63.65;99094.13;4881650;29;20053;-83
2022/04/07 08:08:28;;;;;;;11.13;7.30;;;;;;;8.33;63.13;99091.91;4849704;29;20072;-80
2022/04/07 08:10:54;;;;;;;9.20;7.50;;;;;;;8.80;62.22;99084.84;4835143;29;20041;-80
2022/04/07 08:13:20;;;;;;;9.93;6.85;;;;;;;9.04;60.98;99092.75;4866149;29;20053;-81
2022/04/07 08:15:47;;;;;;;10.32;7.10;;;;;;;9.23;60.28;99086.81;4865276;29;20389;-80
2022/04/07 08:18:13;;;;;;;8.20;6.90;;;;;;;9.28;60.05;99084.63;4881207;29;20036;-80
2022/04/07 08:20:39;;;;;;;10.57;7.10;;;;;;;9.41;59.76;99090.72;4864774;29;20056;-84
2022/04/07 08:23:05;;;;;;;7.47;6.78;;;;;;;9.31;59.17;99089.72;4864141;29;20116;-82
2022/04/07 08:25:31;;;;;;;9.23;6.75;;;;;;;9.11;59.21;99096.63;4864768;29;20060;-81
2022/04/07 08:27:57;;;;;;;8.93;6.88;;;;;;;8.98;59.79;99088.72;4849709;29;20119;-81
2022/04/07 08:30:23;;;;;;;11.30;7.00;;;;;;;8.93;60.04;99093.56;4849170;29;20052;-81
2022/04/07 08:32:49;;;;;;;10.20;8.13;;;;;;;9.10;60.31;99080.75;4834066;29;20049;-80
2022/04/07 08:35:15;;;;;;;20.30;6.90;;;;;;;9.41;59.89;99085.38;4864511;29;20539;-80
2022/04/07 08:37:40;;;;;;;10.02;7.25;;;;;;;9.50;58.98;99083.78;4881078;29;20048;-81
2022/04/07 08:40:07;;;;;;;11.23;7.57;;;;;;;9.39;58.58;99081.97;4864106;29;20096;-82
2022/04/07 08:42:35;;;;;;;9.60;7.60;;;;;;;9.22;59.07;99085.13;4864614;29;20461;-81
2022/04/07 08:45:01;;;;;;;9.85;7.10;;;;;;;9.11;59.27;99088.63;4849275;29;20049;-80
2022/04/07 08:47:31;;;;;;;11.65;7.53;;;;;;;9.00;59.15;99085.97;4849658;29;20385;-81
2022/04/07 08:50:01;;;;;;;11.65;7.18;;;;;;;8.84;60.00;99096.97;4834040;29;20041;-81
2022/04/07 08:52:28;;;;;;;13.00;7.82;;;;;;;8.76;60.51;99099.34;4849526;29;20500;-80
2022/04/07 08:54:55;;;;;;;11.38;7.97;;;;;;;9.00;60.38;99092.13;4848921;29;20059;-80
2022/04/07 08:57:23;;;;;;;12.15;7.25;;;;;;;9.41;60.17;99089.88;4848795;29;20071;-80
2022/04/07 08:59:49;;;;;;;11.90;7.53;;;;;;;9.77;59.38;99094.06;4848535;29;20061;-82
2022/04/07 09:02:15;;;;;;;12.32;7.60;;;;;;;9.85;57.88;99104.97;4863777;29;20072;-82
2022/04/07 09:04:41;;;;;;;11.57;7.78;;;;;;;9.68;58.05;99097.47;4849314;29;20067;-80
2022/04/07 09:07:07;;;;;;;10.63;7.68;;;;;;;9.56;57.96;99103.81;4834094;29;20523;-82
2022/04/07 09:09:36;;;;;;;9.82;6.88;;;;;;;9.52;58.33;99113.03;4848218;29;20048;-80
2022/04/07 09:12:02;;;;;;;9.32;7.22;;;;;;;9.40;58.48;99115.69;4886341;29;20049;-81
2022/04/07 09:14:33;;;;;;;10.50;7.15;;;;;;;9.26;58.87;99113.25;4893957;29;20052;-81
2022/04/07 09:17:00;;;;;;;10.35;7.13;;;;;;;9.18;58.97;99121.84;4852080;29;20059;-82
2022/04/07 09:19:28;;;;;;;9.50;7.60;;;;;;;9.08;59.49;99125.34;4849093;29;20470;-82
2022/04/07 09:22:12;;;;;;;11.38;8.10;;;;;;;9.03;59.69;99116.84;4848831;29;20048;-81
2022/04/07 09:24:40;;;;;;;11.13;7.75;;;;;;;9.09;59.59;99113.72;4864044;29;20048;-82
2022/04/07 09:27:12;;;;;;;11.85;8.18;;;;;;;9.29;59.14;99122.81;4881194;29;20048;-81
2022/04/07 09:29:43;;;;;;;11.55;7.80;;;;;;;9.43;58.66;99126.09;4864476;29;20057;-80
2022/04/07 09:32:20;;;;;;;11.88;8.70;;;;;;;9.52;58.38;99127.22;4863918;29;20093;-81
2022/04/07 09:35:00;;;;;;;13.38;8.52;;;;;;;9.48;57.92;99128.44;4848396;29;20089;-81
2022/04/07 09:37:29;;;;;;;14.55;9.18;;;;;;;9.54;57.75;99121.75;4833412;29;20398;-80
2022/04/07 09:40:09;;;;;;;11.63;8.55;;;;;;;9.41;58.20;99117.38;4848168;29;20201;-79
2022/04/07 09:42:36;;;;;;;16.35;9.80;;;;;;;9.43;57.91;99126.09;4863622;29;20056;-80
2022/04/07 09:45:07;;;;;;;13.95;9.10;;;;;;;9.52;57.75;99124.53;4863678;29;20492;-79
2022/04/07 09:47:37;;;;;;;14.95;9.65;;;;;;;9.72;57.56;99120.28;4833001;29;20522;-81
2022/04/07 09:50:05;;;;;;;14.30;9.23;;;;;;;10.08;56.97;99115.59;4863822;29;20087;-81
2022/04/07 09:52:31;;;;;;;11.48;8.48;;;;;;;10.27;55.91;99121.19;4879652;29;20386;-80
2022/04/07 09:55:02;;;;;;;14.32;9.43;;;;;;;10.37;55.62;99127.44;4832212;29;20045;-81
2022/04/07 09:57:30;;;;;;;28.33;9.77;;;;;;;10.72;55.80;99121.00;4847682;29;20044;-80
2022/04/07 09:59:57;;;;;;;16.48;10.55;;;;;;;11.02;54.10;99127.38;4847682;29;20052;-80
2022/04/07 10:02:23;;;;;;;20.55;8.60;;;;;;;11.38;54.13;99124.22;4847412;29;20056;-80
2022/04/07 10:04:50;;;;;;;12.77;8.82;;;;;;;11.43;52.63;99134.53;4863481;29;20053;-80
2022/04/07 10:07:16;;;;;;;14.10;9.27;;;;;;;11.69;52.71;99126.88;4847695;29;20041;-81
2022/04/07 10:09:42;;;;;;;13.52;8.70;;;;;;;11.87;52.31;99136.00;4847820;29;20048;-81
2022/04/07 10:12:10;;;;;;;14.18;8.60;;;;;;;12.05;51.26;99132.69;4863428;29;20073;-82
2022/04/07 10:14:37;;;;;;;14.32;9.57;;;;;;;11.83;51.28;99144.44;4862879;29;20045;-82
2022/04/07 10:17:04;;;;;;;14.48;9.40;;;;;;;11.73;51.41;99144.38;4847535;29;20053;-82
2022/04/07 10:19:37;;;;;;;17.00;8.85;;;;;;;11.76;50.59;99138.75;4832503;29;20501;-80
2022/04/07 10:22:34;;;;;;;13.40;8.15;;;;;;;11.51;50.75;99141.88;4863033;29;20048;-80
2022/04/07 10:25:03;;;;;;;14.82;8.75;;;;;;;11.56;51.13;99158.41;4847852;29;20097;-79
2022/04/07 10:27:33;;;;;;;13.75;8.23;;;;;;;11.57;51.45;99157.41;4879259;29;20060;-81
2022/04/07 10:30:09;;;;;;;12.85;8.05;;;;;;;11.45;50.89;99153.16;4832245;29;20140;-80
2022/04/07 10:32:42;;;;;;;11.25;8.20;;;;;;;11.21;51.28;99153.41;4832016;29;20107;-81
2022/04/07 10:35:10;;;;;;;12.20;8.27;;;;;;;11.18;51.74;99155.38;4832305;29;20045;-81
2022/04/07 10:37:47;;;;;;;12.53;8.30;;;;;;;11.29;51.98;99162.50;4847514;29;20109;-81
2022/04/07 10:40:44;;;;;;;11.15;8.20;;;;;;;10.84;51.77;99167.25;4862323;29;20041;-81
2022/04/07 10:43:17;;;;;;;12.45;8.05;;;;;;;10.66;52.53;99158.94;4847216;29;20163;-82
2022/04/07 10:45:44;;;;;;;12.02;8.07;;;;;;;10.75;52.49;99157.31;4862367;29;20072;-80
2022/04/07 10:48:17;;;;;;;10.38;8.18;;;;;;;11.01;52.44;99163.13;4846749;29;20120;-81
2022/04/07 10:50:54;;;;;;;10.15;7.10;;;;;;;11.01;51.72;99177.34;4847549;29;20068;-83
2022/04/07 10:53:26;;;;;;;10.77;7.47;;;;;;;11.14;51.68;99170.00;4847296;29;20144;-82
2022/04/07 10:56:05;;;;;;;13.35;7.78;;;;;;;11.70;50.63;99179.47;4832200;29;20044;-84
2022/04/07 10:58:52;;;;;;;11.13;7.00;;;;;;;11.82;49.48;99173.03;4879353;29;20083;-82
2022/04/07 11:01:33;;;;;;;8.90;6.75;;;;;;;12.19;48.51;99177.84;4828661;29;20041;-85
2022/04/07 11:04:20;;;;;;;8.95;6.50;;;;;;;12.14;48.40;99174.72;4857435;29;20069;-79
2022/04/07 11:07:04;;;;;;;13.13;6.00;;;;;;;12.31;47.58;99171.38;4849090;29;20056;-82
2022/04/07 11:09:58;;;;;;;8.20;6.07;;;;;;;12.96;47.08;99171.72;4868780;29;20049;-83
2022/04/07 11:12:37;;;;;;;6.78;6.03;;;;;;;13.79;44.84;99164.78;4842800;29;20091;-83
2022/04/07 11:15:03;;;;;;;9.63;6.13;;;;;;;13.66;43.71;99166.13;4843809;29;20041;-84
2022/04/07 11:17:46;;;;;;;7.07;5.93;;;;;;;13.28;44.30;99181.34;4878849;29;20045;-82
2022/04/07 11:20:25;;;;;;;8.27;5.78;;;;;;;13.59;43.84;99179.28;4862493;29;20492;-80
2022/04/07 11:23:01;;;;;;;6.97;5.28;;;;;;;13.34;43.51;99189.63;4845880;29;20069;-83
2022/04/07 11:25:31;;;;;;;6.47;5.25;;;;;;;13.23;43.34;99200.53;4847483;29;20076;-81
2022/04/07 11:28:15;;;;;;;4.88;4.43;;;;;;;12.85;43.85;99191.47;4846678;29;20504;-81
2022/04/07 11:31:00;;;;;;;5.43;4.50;;;;;;;12.25;45.06;99198.72;4846813;29;20056;-86
2022/04/07 11:33:28;;;;;;;5.93;4.95;;;;;;;12.04;46.02;99201.50;4846788;29;20534;-82
2022/04/07 11:36:00;;;;;;;8.00;5.03;;;;;;;11.19;47.39;99199.03;4846455;29;20059;-84
2022/04/07 11:38:37;;;;;;;9.52;5.13;;;;;;;10.42;49.78;99210.78;4846169;29;20132;-85
2022/04/07 11:41:10;;;;;;;6.22;5.45;;;;;;;10.27;50.54;99193.31;4852135;29;20051;-85